createdAt,value
2019-05-18T00:02:13.906Z,18.32
2019-05-18T00:04:44.754Z,18.30
2019-05-18T00:07:15.395Z,18.24
2019-05-18T00:09:46.461Z,18.19
2019-05-18T00:12:17.085Z,18.19
2019-05-18T00:14:48.406Z,18.19
2019-05-18T00:17:25.393Z,18.22
2019-05-18T00:19:53.066Z,18.21
2019-05-18T00:22:23.673Z,18.19
2019-05-18T00:24:54.956Z,18.12
2019-05-18T00:27:26.085Z,18.19
2019-05-18T00:29:57.111Z,18.08
2019-05-18T00:32:29.201Z,18.03
2019-05-18T00:35:00.266Z,18.01
2019-05-18T00:37:30.852Z,18.02
2019-05-18T00:40:01.927Z,17.99
2019-05-18T00:42:32.524Z,18.05
2019-05-18T00:45:04.131Z,17.94
2019-05-18T00:47:41.477Z,18.00
2019-05-18T00:50:08.281Z,18.00
2019-05-18T00:52:38.936Z,17.92
2019-05-18T00:55:10.073Z,17.90
2019-05-18T00:57:40.821Z,17.90
2019-05-18T01:00:13.327Z,17.90
2019-05-18T01:02:44.030Z,17.84
2019-05-18T01:05:14.742Z,17.77
2019-05-18T01:07:45.478Z,17.74
2019-05-18T01:10:16.848Z,17.70
2019-05-18T01:12:47.454Z,17.76
2019-05-18T01:15:18.661Z,17.68
2019-05-18T01:17:57.234Z,17.68
2019-05-18T01:20:21.893Z,17.66
2019-05-18T01:22:52.513Z,17.65
2019-05-18T01:25:23.171Z,17.60
2019-05-18T01:27:53.898Z,17.56
2019-05-18T01:30:26.138Z,17.55
2019-05-18T01:32:56.781Z,17.53
2019-05-18T01:35:27.668Z,17.48
2019-05-18T01:37:59.109Z,17.54
2019-05-18T01:40:30.708Z,17.49
2019-05-18T01:43:01.322Z,17.45
2019-05-18T01:45:32.356Z,17.38
2019-05-18T01:48:13.129Z,17.40
2019-05-18T01:50:36.389Z,17.34
2019-05-18T01:53:07.790Z,17.32
2019-05-18T01:55:38.646Z,17.26
2019-05-18T01:58:09.666Z,17.24
2019-05-18T02:00:40.428Z,17.25
2019-05-18T02:03:11.183Z,17.22
2019-05-18T02:05:41.867Z,17.16
2019-05-18T02:08:15.640Z,17.16
2019-05-18T02:10:46.447Z,17.13
2019-05-18T02:13:17.109Z,17.20
2019-05-18T02:15:47.798Z,17.19
2019-05-18T02:18:28.850Z,17.20
2019-05-18T02:20:50.812Z,17.13
2019-05-18T02:23:21.543Z,17.11
2019-05-18T02:25:52.363Z,17.10
2019-05-18T02:28:23.246Z,17.10
2019-05-18T02:30:54.600Z,17.11
2019-05-18T02:33:25.183Z,17.19
2019-05-18T02:35:56.518Z,17.16
2019-05-18T02:38:28.018Z,17.17
2019-05-18T02:40:59.792Z,17.21
2019-05-18T02:43:31.061Z,17.24
2019-05-18T02:46:02.393Z,17.32
2019-05-18T02:48:48.592Z,17.33
2019-05-18T02:51:11.136Z,17.43
2019-05-18T02:53:39.830Z,17.44
2019-05-18T02:56:11.589Z,17.48
2019-05-18T02:58:42.209Z,17.59
2019-05-18T03:01:12.973Z,17.52
2019-05-18T03:03:45.565Z,17.54
2019-05-18T03:06:16.289Z,17.46
2019-05-18T03:08:47.393Z,17.43
2019-05-18T03:11:21.233Z,17.60
2019-05-18T03:13:52.358Z,18.26
2019-05-18T03:16:23.107Z,18.63
2019-05-18T03:19:07.321Z,18.28
2019-05-18T03:21:26.346Z,17.94
2019-05-18T03:23:57.214Z,18.07
2019-05-18T03:26:28.282Z,18.25
2019-05-18T03:28:59.181Z,18.39
2019-05-18T03:31:31.158Z,18.39
2019-05-18T03:34:01.937Z,18.96
2019-05-18T03:36:32.808Z,19.19
2019-05-18T03:39:04.989Z,19.87
2019-05-18T03:41:35.715Z,20.69
2019-05-18T03:44:07.395Z,20.53
2019-05-18T03:46:38.995Z,20.70
2019-05-18T03:49:25.424Z,20.95
2019-05-18T03:51:43.726Z,21.23
2019-05-18T03:54:15.982Z,21.26
2019-05-18T03:56:46.571Z,21.10
2019-05-18T03:59:17.361Z,21.15
2019-05-18T04:01:48.240Z,21.57
2019-05-18T04:04:18.936Z,21.23
2019-05-18T04:06:49.608Z,21.60
2019-05-18T04:09:20.394Z,21.75
2019-05-18T04:11:50.964Z,21.90
2019-05-18T04:14:22.344Z,21.58
2019-05-18T04:16:55.978Z,21.37
2019-05-18T04:19:44.687Z,21.98
2019-05-18T04:21:59.718Z,22.26
2019-05-18T04:24:30.584Z,21.63
2019-05-18T04:27:01.438Z,21.82
2019-05-18T04:29:32.540Z,21.99
2019-05-18T04:32:03.253Z,22.88
2019-05-18T04:34:33.907Z,22.97
2019-05-18T04:37:04.524Z,22.54
2019-05-18T04:39:35.178Z,22.35
2019-05-18T04:42:06.230Z,22.55
2019-05-18T04:44:37.045Z,22.91
2019-05-18T04:47:07.730Z,22.66
2019-05-18T04:49:38.363Z,23.26
2019-05-18T04:52:08.982Z,23.34
2019-05-18T04:54:39.840Z,23.67
2019-05-18T04:57:10.595Z,24.00
2019-05-18T04:59:41.335Z,24.25
2019-05-18T05:02:12.185Z,23.58
2019-05-18T05:04:42.992Z,23.85
2019-05-18T05:07:13.624Z,23.29
2019-05-18T05:09:44.378Z,23.55
2019-05-18T05:12:15.130Z,23.73
2019-05-18T05:14:45.745Z,23.07
2019-05-18T05:17:16.359Z,23.40
2019-05-18T05:19:48.380Z,23.40
2019-05-18T05:22:19.087Z,23.83
2019-05-18T05:24:49.718Z,23.51
2019-05-18T05:27:20.336Z,23.34
2019-05-18T05:29:51.083Z,23.83
2019-05-18T05:32:21.718Z,24.08
2019-05-18T05:34:52.385Z,24.52
2019-05-18T05:37:23.032Z,24.11
2019-05-18T05:39:53.650Z,24.85
2019-05-18T05:42:24.313Z,24.29
2019-05-18T05:44:55.326Z,24.34
2019-05-18T05:47:25.853Z,24.09
2019-05-18T05:49:56.469Z,24.53
2019-05-18T05:52:27.142Z,24.39
2019-05-18T05:54:57.889Z,24.72
2019-05-18T05:57:28.494Z,25.12
2019-05-18T05:59:59.087Z,25.14
2019-05-18T06:02:29.883Z,24.47
2019-05-18T06:05:00.814Z,25.10
2019-05-18T06:07:31.464Z,24.43
2019-05-18T06:10:02.464Z,23.55
2019-05-18T06:12:33.323Z,23.71
2019-05-18T06:15:05.528Z,23.68
2019-05-18T06:17:36.308Z,24.04
2019-05-18T06:20:09.370Z,24.03
2019-05-18T06:22:40.688Z,24.33
2019-05-18T06:25:11.656Z,24.38
2019-05-18T06:27:42.421Z,24.44
2019-05-18T06:30:14.097Z,24.58
2019-05-18T06:32:44.907Z,24.94
2019-05-18T06:35:15.790Z,24.63
2019-05-18T06:37:46.655Z,24.58
2019-05-18T06:40:17.211Z,24.20
2019-05-18T06:42:47.889Z,23.72
2019-05-18T06:45:18.798Z,24.12
2019-05-18T06:47:49.598Z,23.68
2019-05-18T06:50:23.354Z,23.39
2019-05-18T06:52:54.127Z,23.58
2019-05-18T06:55:26.779Z,23.39
2019-05-18T06:57:59.281Z,23.39
2019-05-18T07:00:30.979Z,23.50
2019-05-18T07:03:01.715Z,23.45
2019-05-18T07:05:32.353Z,23.45
2019-05-18T07:08:05.062Z,23.55
2019-05-18T07:10:35.871Z,23.73
2019-05-18T07:13:08.145Z,23.73
2019-05-18T07:15:39.215Z,23.65
2019-05-18T07:18:10.013Z,23.61
2019-05-18T07:20:40.751Z,23.77
2019-05-18T07:23:11.470Z,23.96
2019-05-18T07:25:42.033Z,24.09
2019-05-18T07:28:12.734Z,23.99
2019-05-18T07:30:43.326Z,24.26
2019-05-18T07:33:14.096Z,24.63
2019-05-18T07:35:44.986Z,24.59
2019-05-18T07:38:15.654Z,24.53
2019-05-18T07:40:46.742Z,24.62
2019-05-18T07:43:17.252Z,24.47
2019-05-18T07:45:50.102Z,24.48
2019-05-18T07:48:20.865Z,24.40
2019-05-18T07:50:51.598Z,24.86
2019-05-18T07:53:22.244Z,24.92
2019-05-18T07:55:52.962Z,24.89
2019-05-18T07:58:23.609Z,24.98
2019-05-18T08:00:54.309Z,24.93
2019-05-18T08:03:25.154Z,25.00
2019-05-18T08:05:55.750Z,25.25
2019-05-18T08:08:26.455Z,24.97
2019-05-18T08:10:57.540Z,25.27
2019-05-18T08:13:28.665Z,25.18
2019-05-18T08:15:59.474Z,25.18
2019-05-18T08:18:30.511Z,25.31
2019-05-18T08:21:10.959Z,25.20
2019-05-18T08:23:41.687Z,25.18
2019-05-18T08:26:12.406Z,25.41
2019-05-18T08:28:43.017Z,25.44
2019-05-18T08:31:13.606Z,25.15
2019-05-18T08:33:44.366Z,25.32
2019-05-18T08:36:14.993Z,25.30
2019-05-18T08:38:45.587Z,25.48
2019-05-18T08:41:16.236Z,25.44
2019-05-18T08:43:46.832Z,25.67
2019-05-18T08:46:17.546Z,25.70
2019-05-18T08:48:48.289Z,25.67
2019-05-18T08:51:18.957Z,25.61
2019-05-18T08:53:49.629Z,25.56
2019-05-18T08:56:20.221Z,25.49
2019-05-18T08:58:50.899Z,25.52
2019-05-18T09:01:21.633Z,25.64
2019-05-18T09:03:55.296Z,25.69
2019-05-18T09:06:26.088Z,25.83
2019-05-18T09:08:56.844Z,26.27
2019-05-18T09:11:27.548Z,26.04
2019-05-18T09:13:58.123Z,25.57
2019-05-18T09:16:28.955Z,25.84
2019-05-18T09:18:59.872Z,25.95
2019-05-18T09:21:30.565Z,26.29
2019-05-18T09:24:01.360Z,26.32
2019-05-18T09:26:32.154Z,26.27
2019-05-18T09:29:02.937Z,26.07
2019-05-18T09:31:33.526Z,26.22
2019-05-18T09:34:07.244Z,26.18
2019-05-18T09:36:38.064Z,26.50
2019-05-18T09:39:08.697Z,26.74
2019-05-18T09:41:39.319Z,26.61
2019-05-18T09:44:10.009Z,26.53
2019-05-18T09:46:40.620Z,26.46
2019-05-18T09:49:11.221Z,26.54
2019-05-18T09:51:41.677Z,26.28
2019-05-18T09:54:12.285Z,26.23
2019-05-18T09:56:42.999Z,26.14
2019-05-18T09:59:13.638Z,26.60
2019-05-18T10:01:44.727Z,26.86
2019-05-18T10:04:15.504Z,26.60
2019-05-18T10:06:46.453Z,26.27
2019-05-18T10:09:17.195Z,26.18
2019-05-18T10:11:47.836Z,26.28
2019-05-18T10:14:18.540Z,26.29
2019-05-18T10:16:49.314Z,26.47
2019-05-18T10:19:20.135Z,26.74
2019-05-18T10:21:50.820Z,26.87
2019-05-18T10:24:21.408Z,26.59
2019-05-18T10:26:53.687Z,26.63
2019-05-18T10:29:24.291Z,26.65
2019-05-18T10:31:54.923Z,26.97
2019-05-18T10:34:25.753Z,26.79
2019-05-18T10:36:56.391Z,26.79
2019-05-18T10:39:27.004Z,26.66
2019-05-18T10:41:59.342Z,26.79
2019-05-18T10:44:31.633Z,26.52
2019-05-18T11:27:38.689Z,26.74
2019-05-18T11:30:11.157Z,26.92
2019-05-18T11:32:41.819Z,26.83
2019-05-18T11:35:13.028Z,27.01
2019-05-18T11:51:14.795Z,27.28
2019-05-18T11:53:57.550Z,27.09
2019-05-18T11:56:18.372Z,27.04
2019-05-18T11:58:49.077Z,27.00
2019-05-18T12:01:19.998Z,26.74
2019-05-18T12:03:53.304Z,26.83
2019-05-18T12:06:24.943Z,26.85
2019-05-18T12:08:58.777Z,27.04
2019-05-18T12:11:29.621Z,26.93
2019-05-18T12:14:00.300Z,26.83
2019-05-18T12:16:31.272Z,26.98
2019-05-18T12:19:02.597Z,27.04
2019-05-18T12:21:33.313Z,26.68
2019-05-18T12:24:14.601Z,26.61
2019-05-18T12:26:36.749Z,26.64
2019-05-18T12:40:25.397Z,26.82
2019-05-18T12:42:56.130Z,26.86
2019-05-18T12:45:26.863Z,26.79
2019-05-18T12:47:57.704Z,26.95
2019-05-18T12:50:28.576Z,27.21
2019-05-18T12:52:59.379Z,27.10
2019-05-18T12:55:30.522Z,27.09
2019-05-18T12:58:01.764Z,26.75
2019-05-18T13:00:32.940Z,27.08
2019-05-18T13:03:04.157Z,27.10
2019-05-18T13:05:35.520Z,27.34
2019-05-18T13:08:06.761Z,27.39
2019-05-18T13:10:37.653Z,27.28
2019-05-18T13:20:15.423Z,27.41
2019-05-18T13:22:46.168Z,27.10
2019-05-18T13:25:17.692Z,26.87
2019-05-18T13:27:48.353Z,26.96
2019-05-18T13:30:21.121Z,26.99
2019-05-18T13:32:51.948Z,27.30
2019-05-18T13:35:22.780Z,27.11
2019-05-18T13:37:54.198Z,26.88
2019-05-18T13:40:25.263Z,26.71
2019-05-18T13:42:56.628Z,26.57
2019-05-18T13:45:27.460Z,26.66
2019-05-18T13:47:58.257Z,26.46
2019-05-18T13:50:29.518Z,26.55
2019-05-18T13:53:00.151Z,26.78
2019-05-18T13:55:31.061Z,26.82
2019-05-18T13:58:02.213Z,26.81
2019-05-18T14:00:33.182Z,26.74
2019-05-18T14:03:06.239Z,26.70
2019-05-18T14:05:39.783Z,26.67
2019-05-18T14:08:15.511Z,26.53
2019-05-18T14:10:43.088Z,26.65
2019-05-18T14:13:14.340Z,26.70
2019-05-18T14:15:45.987Z,26.63
2019-05-18T14:18:16.698Z,26.59
2019-05-18T14:20:48.202Z,26.64
2019-05-18T14:23:19.620Z,26.60
2019-05-18T14:25:50.661Z,26.63
2019-05-18T14:28:21.597Z,26.58
2019-05-18T14:30:52.356Z,26.36
2019-05-18T14:33:23.201Z,26.43
2019-05-18T14:35:54.019Z,26.40
2019-05-18T14:38:24.761Z,26.40
2019-05-18T16:24:52.223Z,24.53
2019-05-18T16:27:22.992Z,24.46
2019-05-18T16:29:53.998Z,24.38
2019-05-18T16:32:26.295Z,24.36
2019-05-18T16:34:56.960Z,24.31
2019-05-18T16:37:28.101Z,24.24
2019-05-18T16:48:54.831Z,24.02
2019-05-18T16:51:24.858Z,23.97
2019-05-18T16:53:55.509Z,23.98
2019-05-18T16:56:34.827Z,23.79
2019-05-18T16:58:58.666Z,23.62
2019-05-18T17:01:30.912Z,23.56
2019-05-18T17:04:01.549Z,23.56
2019-05-18T17:06:33.969Z,23.52
2019-05-18T17:09:08.060Z,23.50
2019-05-18T17:11:38.827Z,23.43
2019-05-18T17:14:10.968Z,23.37
2019-05-18T17:16:41.703Z,23.31
2019-05-18T17:19:12.647Z,23.24
2019-05-18T17:21:43.264Z,23.26
2019-05-18T17:24:13.970Z,23.16
2019-05-18T17:26:52.974Z,23.13
2019-05-18T17:29:23.112Z,23.03
2019-05-18T17:31:54.079Z,23.00
2019-05-18T17:34:24.863Z,22.96
2019-05-18T17:36:55.463Z,22.89
2019-05-18T17:39:26.169Z,22.87
2019-05-18T17:41:56.906Z,22.89
2019-05-18T17:44:30.000Z,22.83
2019-05-18T17:47:00.572Z,22.76
2019-05-18T17:49:31.294Z,22.73
2019-05-18T17:52:02.003Z,22.71
2019-05-18T17:54:32.699Z,22.71
2019-05-18T17:57:08.527Z,22.68
2019-05-18T17:59:36.829Z,22.65
2019-05-18T18:02:07.771Z,22.60
2019-05-18T18:04:38.433Z,22.54
2019-05-18T18:07:09.201Z,22.46
2019-05-18T18:09:41.390Z,22.44
2019-05-18T18:12:12.277Z,22.43
2019-05-18T18:14:43.079Z,22.35
2019-05-18T18:17:17.425Z,22.32
2019-05-18T18:19:59.198Z,22.19
2019-05-18T18:22:37.245Z,22.22
2019-05-18T18:25:08.478Z,22.17
2019-05-18T18:27:39.019Z,22.11
2019-05-18T18:30:17.217Z,22.07
2019-05-18T18:33:06.832Z,22.04
2019-05-18T18:35:39.605Z,22.06
2019-05-18T18:39:02.043Z,21.93
2019-05-18T18:40:57.708Z,21.86
2019-05-18T18:43:28.538Z,21.78
2019-05-18T18:45:59.389Z,21.75
2019-05-18T18:48:30.047Z,21.64
2019-05-18T18:51:00.665Z,21.62
2019-05-18T18:53:31.376Z,21.65
2019-05-18T18:56:02.137Z,21.59
2019-05-18T18:58:32.775Z,21.54
2019-05-18T19:01:03.582Z,21.46
2019-05-18T19:03:34.320Z,21.37
2019-05-18T19:06:05.054Z,21.33
2019-05-18T19:08:36.048Z,21.23
2019-05-18T19:11:06.809Z,21.23
2019-05-18T19:13:37.760Z,21.24
2019-05-18T19:16:09.078Z,21.21
2019-05-18T19:18:42.628Z,21.16
2019-05-18T19:21:14.007Z,21.12
2019-05-18T19:23:45.147Z,20.97
2019-05-18T19:26:18.358Z,20.89
2019-05-18T19:28:49.181Z,20.82
2019-05-18T19:31:20.221Z,20.77
2019-05-18T19:33:51.388Z,20.70
2019-05-18T19:36:22.502Z,20.74
2019-05-18T19:38:54.095Z,20.71
2019-05-18T19:41:25.093Z,20.71
2019-05-18T19:43:56.342Z,20.71
2019-05-18T19:46:27.489Z,20.67
2019-05-18T19:48:58.833Z,20.64
2019-05-18T19:51:29.910Z,20.59
2019-05-18T19:54:01.203Z,20.53
2019-05-18T19:56:38.877Z,20.48
2019-05-18T19:59:05.384Z,20.43
2019-05-18T20:01:39.474Z,20.40
2019-05-18T20:04:10.721Z,20.34
2019-05-18T20:06:41.962Z,20.33
2019-05-18T20:09:13.107Z,20.21
2019-05-18T20:11:44.462Z,20.19
2019-05-18T20:14:15.489Z,20.14
2019-05-18T20:16:46.565Z,20.08
2019-05-18T20:19:17.678Z,20.10
2019-05-18T20:21:48.829Z,20.10
2019-05-18T20:24:19.980Z,20.04
2019-05-18T20:26:52.425Z,20.04
2019-05-18T20:29:23.641Z,20.02
2019-05-18T20:31:54.620Z,19.98
2019-05-18T20:34:25.883Z,19.96
2019-05-18T20:36:56.603Z,19.94
2019-05-18T20:39:27.637Z,19.81
2019-05-18T20:42:09.643Z,19.78
2019-05-18T20:44:40.576Z,19.72
2019-05-18T20:47:11.906Z,19.64
2019-05-18T20:49:43.090Z,19.69
2019-05-18T20:52:16.685Z,19.69
2019-05-18T20:54:47.708Z,19.60
2019-05-18T20:57:18.862Z,19.58
2019-05-18T20:59:49.689Z,19.47
2019-05-18T21:02:21.045Z,19.36
2019-05-18T21:04:52.690Z,19.35
2019-05-18T21:07:23.534Z,19.28
2019-05-18T21:09:56.621Z,19.22
2019-05-18T21:12:27.668Z,19.24
2019-05-18T21:14:58.620Z,19.11
2019-05-18T21:17:29.746Z,19.04
2019-05-18T21:20:01.196Z,18.94
2019-05-18T21:22:32.745Z,18.89
2019-05-18T21:25:03.577Z,18.87
2019-05-18T21:27:34.734Z,18.83
2019-05-18T21:30:06.917Z,18.84
2019-05-18T21:32:38.452Z,18.83
2019-05-18T21:35:09.724Z,18.80
2019-05-18T21:37:40.423Z,18.79
2019-05-18T21:40:12.310Z,18.66
2019-05-18T21:42:43.324Z,18.66
2019-05-18T21:45:14.986Z,18.61
2019-05-18T21:47:47.869Z,18.56
2019-05-18T21:50:18.904Z,18.53
2019-05-18T21:52:49.750Z,18.45
2019-05-18T21:55:20.784Z,18.43
2019-05-18T21:57:51.832Z,18.40
2019-05-18T22:00:24.153Z,18.40
2019-05-18T22:02:54.829Z,18.37
2019-05-18T22:05:25.864Z,18.32
2019-05-18T22:07:57.004Z,18.24
2019-05-18T22:10:28.061Z,18.18
2019-05-18T22:12:59.909Z,18.18
2019-05-18T22:15:30.850Z,18.08
2019-05-18T22:18:04.768Z,18.09
2019-05-18T22:20:43.300Z,17.99
2019-05-18T22:23:10.220Z,17.92
2019-05-18T22:25:40.996Z,17.91
2019-05-18T22:28:12.097Z,17.96
2019-05-18T22:30:42.965Z,17.93
2019-05-18T22:33:14.506Z,17.98
2019-05-18T22:35:45.650Z,18.03
2019-05-18T22:38:16.894Z,17.97
2019-05-18T22:40:48.150Z,17.94
2019-05-18T22:43:19.286Z,18.00
2019-05-18T22:45:51.854Z,17.99
2019-05-18T22:48:22.907Z,17.96
2019-05-18T22:50:54.467Z,17.96
2019-05-18T22:53:25.543Z,17.94
2019-05-18T22:55:56.852Z,17.79
2019-05-18T22:58:28.137Z,17.73
2019-05-18T23:01:00.353Z,17.68
2019-05-18T23:03:31.442Z,17.64
2019-05-18T23:06:02.734Z,17.63
2019-05-18T23:08:33.897Z,17.65
2019-05-18T23:11:05.558Z,17.60
2019-05-18T23:13:39.154Z,17.60
2019-05-18T23:16:10.080Z,17.55
2019-05-18T23:18:54.465Z,17.45
2019-05-18T23:21:13.887Z,17.34
2019-05-18T23:23:44.928Z,17.22
2019-05-18T23:26:16.192Z,17.24
2019-05-18T23:28:47.314Z,17.17
2019-05-18T23:31:18.356Z,17.07
2019-05-18T23:33:49.498Z,17.14
2019-05-18T23:36:20.752Z,17.10
2019-05-18T23:38:52.589Z,16.98
2019-05-18T23:41:23.748Z,16.95
2019-05-18T23:43:55.099Z,16.86
2019-05-18T23:46:25.727Z,16.83
2019-05-18T23:49:09.979Z,16.74
2019-05-18T23:51:29.760Z,16.67
2019-05-18T23:54:01.511Z,16.68
2019-05-18T23:56:33.275Z,16.54
2019-05-18T23:59:05.254Z,16.50
